Main page
METAR-TAF:

METAR-TAF

Airports :

Madrid-Cuatro Vientos, Spain

Cuatro Vientos Airport

latitude: 40-23N, longitude: 003-47W, elevation: 690 m

Current weather observation

The report was made 22 minutes ago, at 16:30 UTC
Wind 11 kt from the South/Southwest
Temperature 32°C
Humidity 14%
Pressure 1015 hPa
Visibility 10 km or more
no clouds below 1500 m and no cumulonimbus

METAR: LEVS 221630Z 21011KT CAVOK 32/01 Q1015

Time: 18:52 (16:52 UTC)

Forecast

The report was made 2 hours and 52 minutes ago, at 14:00 UTC
Forecast valid from 22 at 15 UTC to 22 at 24 UTC
Wind 10 kt from the Southwest
Visibility 10 km or more
no clouds below 1500 m and no cumulonimbus
Becoming
from 22 at 20 UTC to 22 at 22 UTC
Wind 5 kt from variable directions

TAF: LEVS 221400Z 2215/2224 23010KT CAVOK BECMG 2220/2222 VRB05KT

Weather observations and forecasts of more than 4000 airports (METAR and TAF reports).

The available stations are represented by yellow and red dots on the map.

Hover mouse over dot to see the name of the station.

Then click to see weather observations and forecasts.

To change the map : click on the green buttons with a black cross to zoom in, on the green button with a dash to zoom out, or on the green arrows for adjacent maps.


METAR-TAF: